Time;durP1;ratioP1;P1;durP2;ratioP2;P2;SDS_P1;SDS_P2;PMS_P1;PMS_P2;Temp;Humidity;BMP_temperature;BMP_pressure;BME280_temperature;BME280_humidity;BME280_pressure;Samples;Min_cycle;Max_cycle;Signal;HPM_P1;HPM_P2
2021/01/07 00:01:11;;;;;;;29.60;21.10;;;;;;;10.83;39.21;102031.91;5053284;28;20112;-75
2021/01/07 00:03:40;;;;;;;27.13;21.80;;;;;;;10.70;39.59;102030.63;5053180;28;20029;-72
2021/01/07 00:06:13;;;;;;;27.73;21.40;;;;;;;10.69;39.82;102028.16;5019253;28;20074;-72
2021/01/07 00:08:39;;;;;;;27.33;21.90;;;;;;;10.92;39.15;102026.66;5031860;28;20040;-72
2021/01/07 00:11:06;;;;;;;29.47;21.13;;;;;;;10.78;39.21;102021.00;5033296;28;20087;-77
2021/01/07 00:13:32;;;;;;;29.70;21.70;;;;;;;10.96;38.81;102016.78;5032975;28;20030;-73
2021/01/07 00:15:58;;;;;;;29.60;19.97;;;;;;;10.95;39.19;102024.16;5032977;28;20064;-76
2021/01/07 00:18:24;;;;;;;28.57;20.83;;;;;;;10.93;39.11;102017.34;5031834;28;20045;-72
2021/01/07 00:20:49;;;;;;;25.40;19.53;;;;;;;11.10;38.75;102018.56;5032876;28;20123;-72
2021/01/07 00:23:15;;;;;;;26.73;19.57;;;;;;;10.96;38.99;102014.06;5031704;28;20479;-72
2021/01/07 00:25:51;;;;;;;29.37;19.37;;;;;;;10.90;38.70;102007.81;5032800;28;20033;-72
2021/01/07 00:28:18;;;;;;;27.00;19.37;;;;;;;11.10;38.37;102001.34;5014962;28;20115;-72
2021/01/07 00:30:45;;;;;;;31.63;19.60;;;;;;;11.11;38.52;102003.81;5015014;28;20025;-72
2021/01/07 00:33:11;;;;;;;22.53;18.17;;;;;;;11.06;38.71;102008.50;5032677;28;20013;-73
2021/01/07 00:35:37;;;;;;;25.80;17.93;;;;;;;11.03;38.55;102009.91;5032690;28;20030;-71
2021/01/07 00:38:04;;;;;;;21.53;17.27;;;;;;;11.04;38.42;102003.31;5014876;28;20399;-72
2021/01/07 00:40:31;;;;;;;24.50;17.57;;;;;;;11.13;38.49;101999.97;5030656;28;20043;-71
2021/01/07 00:42:56;;;;;;;20.77;16.87;;;;;;;11.07;38.55;101997.28;5032635;28;20052;-71
2021/01/07 00:45:22;;;;;;;22.73;16.50;;;;;;;11.15;38.34;101995.03;5032628;28;20123;-71
2021/01/07 00:47:47;;;;;;;22.93;16.20;;;;;;;11.06;38.34;101995.66;5032523;28;20017;-71
2021/01/07 00:50:13;;;;;;;22.53;16.27;;;;;;;11.13;38.36;101995.31;5032469;28;20102;-71
2021/01/07 00:52:40;;;;;;;20.93;15.87;;;;;;;10.82;39.06;101990.09;5032356;28;20026;-70
2021/01/07 00:55:07;;;;;;;23.83;17.80;;;;;;;11.02;38.95;101982.81;5032402;28;20025;-71
2021/01/07 00:57:33;;;;;;;26.27;19.23;;;;;;;11.04;38.50;101975.97;5032490;28;20038;-71
2021/01/07 00:59:59;;;;;;;24.90;18.60;;;;;;;10.97;38.68;101975.47;5032471;28;20029;-71
2021/01/07 01:02:24;;;;;;;30.33;20.77;;;;;;;10.96;38.75;101973.03;5032381;28;20067;-72
2021/01/07 01:04:50;;;;;;;24.20;19.27;;;;;;;10.98;38.79;101973.56;5032291;28;20036;-76
2021/01/07 01:07:16;;;;;;;26.33;19.20;;;;;;;11.07;38.69;101977.31;5014665;28;20043;-72
2021/01/07 01:09:41;;;;;;;22.80;18.30;;;;;;;10.78;39.29;101971.78;5032430;28;20029;-72
2021/01/07 01:12:07;;;;;;;22.70;17.83;;;;;;;11.01;38.79;101973.78;5032261;28;20025;-72
2021/01/07 01:14:33;;;;;;;22.53;17.23;;;;;;;10.91;39.06;101970.34;5032154;28;20503;-72
2021/01/07 01:16:59;;;;;;;19.57;15.70;;;;;;;10.95;38.97;101972.19;5032424;28;20017;-73
2021/01/07 01:19:24;;;;;;;20.00;17.13;;;;;;;10.99;38.68;101965.06;5032163;28;20036;-72
2021/01/07 01:21:53;;;;;;;19.83;15.30;;;;;;;10.92;38.99;101963.75;5032245;28;20022;-72
2021/01/07 01:24:20;;;;;;;18.70;14.50;;;;;;;11.06;38.89;101959.28;5032157;28;20029;-72
2021/01/07 01:26:46;;;;;;;17.70;14.77;;;;;;;10.94;38.82;101956.88;5032367;28;20515;-72
2021/01/07 01:29:12;;;;;;;21.93;15.80;;;;;;;10.84;39.13;101968.72;5030466;28;20527;-72
2021/01/07 01:31:39;;;;;;;18.10;15.00;;;;;;;10.64;39.84;101965.31;5032288;28;20018;-76
2021/01/07 01:34:06;;;;;;;21.60;15.17;;;;;;;10.92;39.15;101950.91;5032034;28;20025;-72
2021/01/07 01:36:32;;;;;;;19.40;14.67;;;;;;;10.97;39.05;101956.34;5032116;28;20033;-72
2021/01/07 01:38:57;;;;;;;21.00;15.40;;;;;;;11.09;38.70;101950.47;5032062;28;20194;-72
2021/01/07 01:41:23;;;;;;;22.67;15.20;;;;;;;11.00;39.09;101953.03;5032029;28;20360;-72
2021/01/07 01:43:49;;;;;;;19.50;15.40;;;;;;;11.15;38.84;101948.53;5031980;28;20391;-73
2021/01/07 01:46:15;;;;;;;20.63;15.43;;;;;;;10.89;39.20;101954.22;5032034;28;20026;-72
2021/01/07 01:48:41;;;;;;;23.57;14.80;;;;;;;10.99;38.95;101956.06;5032039;28;20060;-72
2021/01/07 01:51:08;;;;;;;21.93;16.83;;;;;;;11.07;39.01;101947.22;5031351;28;20100;-72
2021/01/07 01:53:34;;;;;;;20.50;15.80;;;;;;;11.14;38.92;101944.16;5035683;28;20061;-72
2021/01/07 01:56:01;;;;;;;20.77;15.97;;;;;;;11.09;39.01;101948.56;5035688;28;20388;-72
2021/01/07 01:58:29;;;;;;;23.80;16.27;;;;;;;11.28;38.24;101945.94;5034310;28;20507;-72
2021/01/07 02:00:54;;;;;;;22.60;17.10;;;;;;;10.94;39.04;101943.22;5017734;28;20169;-72
2021/01/07 02:03:20;;;;;;;22.03;17.03;;;;;;;11.06;38.73;101945.59;5034365;28;20076;-75
2021/01/07 02:05:46;;;;;;;23.13;17.07;;;;;;;11.04;38.85;101942.34;5035505;28;20026;-72
2021/01/07 02:08:13;;;;;;;25.60;17.90;;;;;;;10.96;39.06;101941.03;5035423;28;20037;-72
2021/01/07 02:10:40;;;;;;;22.60;18.27;;;;;;;11.13;38.53;101948.00;5035315;28;20036;-72
2021/01/07 02:13:07;;;;;;;23.83;17.30;;;;;;;11.06;38.75;101942.88;5035225;28;20040;-72
2021/01/07 02:15:39;;;;;;;27.80;17.73;;;;;;;11.06;38.62;101940.13;5035272;28;20025;-72
2021/01/07 02:18:05;;;;;;;25.17;17.47;;;;;;;10.72;39.28;101948.31;5035161;28;20495;-72
2021/01/07 02:20:33;;;;;;;23.90;17.03;;;;;;;11.01;38.73;101943.72;5035189;28;20027;-72
2021/01/07 02:22:59;;;;;;;27.00;18.40;;;;;;;11.09;38.76;101937.63;5035161;28;20025;-73
2021/01/07 02:25:25;;;;;;;22.57;16.93;;;;;;;11.06;38.60;101938.22;5035110;28;20427;-72
2021/01/07 02:27:50;;;;;;;23.77;18.10;;;;;;;11.09;38.60;101934.06;5034376;28;20076;-72
2021/01/07 02:30:16;;;;;;;21.40;16.53;;;;;;;10.78;39.08;101931.59;5033862;28;20418;-72
2021/01/07 02:32:43;;;;;;;29.90;17.87;;;;;;;10.82;39.15;101931.84;5034995;28;20029;-73
2021/01/07 02:35:09;;;;;;;23.37;17.13;;;;;;;10.57;39.71;101933.66;5034911;28;20075;-73
2021/01/07 02:37:37;;;;;;;23.83;16.97;;;;;;;10.59;39.86;101933.38;5034898;28;20033;-72
2021/01/07 02:40:05;;;;;;;23.80;17.50;;;;;;;10.88;39.29;101927.13;5034792;28;20044;-72
2021/01/07 02:42:31;;;;;;;21.90;16.43;;;;;;;10.91;39.13;101932.88;5034732;28;20109;-71
2021/01/07 02:44:56;;;;;;;21.03;16.50;;;;;;;10.98;38.86;101921.59;5034726;28;20108;-72
2021/01/07 02:47:22;;;;;;;21.23;16.77;;;;;;;11.10;38.78;101928.31;5033335;28;20167;-72
2021/01/07 02:49:47;;;;;;;23.77;16.97;;;;;;;11.12;38.50;101919.84;5034630;28;20026;-72
2021/01/07 02:52:13;;;;;;;21.57;15.83;;;;;;;11.08;38.61;101921.50;5034618;28;20475;-72
2021/01/07 02:54:38;;;;;;;23.47;16.60;;;;;;;11.00;38.92;101925.66;5034475;28;20484;-72
2021/01/07 02:57:04;;;;;;;23.90;17.33;;;;;;;11.24;38.50;101916.69;5034510;28;20029;-72
2021/01/07 02:59:30;;;;;;;19.60;17.30;;;;;;;11.13;38.86;101917.91;5034474;28;20026;-76
2021/01/07 03:01:55;;;;;;;22.30;18.20;;;;;;;11.30;38.43;101915.56;5034445;28;20059;-72
2021/01/07 03:04:21;;;;;;;24.13;17.27;;;;;;;11.23;38.66;101915.06;5033603;28;20037;-72
2021/01/07 03:06:47;;;;;;;22.07;17.77;;;;;;;11.37;38.42;101913.28;5034343;28;20139;-72
2021/01/07 03:09:14;;;;;;;22.57;18.60;;;;;;;11.19;38.64;101906.63;5034224;28;20123;-71
2021/01/07 03:11:39;;;;;;;21.77;17.87;;;;;;;11.38;38.31;101903.97;5034251;28;20026;-72
2021/01/07 03:14:05;;;;;;;22.60;18.40;;;;;;;11.32;38.61;101910.59;5034129;28;20040;-72
2021/01/07 03:16:31;;;;;;;26.23;19.03;;;;;;;11.40;38.50;101899.00;5034146;28;20112;-71
2021/01/07 03:18:56;;;;;;;21.90;17.80;;;;;;;11.37;38.37;101894.13;5034082;28;20028;-72
2021/01/07 03:21:22;;;;;;;21.67;18.13;;;;;;;11.29;38.62;101892.84;5034040;28;20044;-72
2021/01/07 03:23:48;;;;;;;21.53;17.90;;;;;;;11.17;38.88;101902.53;5034026;28;20041;-72
2021/01/07 03:26:14;;;;;;;24.23;18.17;;;;;;;11.49;38.29;101891.81;5034000;28;20065;-72
2021/01/07 03:28:40;;;;;;;25.63;20.33;;;;;;;11.34;38.51;101894.72;5033710;28;20172;-77
2021/01/07 03:31:06;;;;;;;25.73;19.00;;;;;;;11.34;38.25;101890.06;5033908;28;20108;-72
2021/01/07 03:33:32;;;;;;;25.10;19.20;;;;;;;11.22;38.59;101889.63;5033747;28;20117;-72
2021/01/07 03:35:59;;;;;;;24.70;19.73;;;;;;;11.15;38.72;101882.88;5033796;28;20471;-71
2021/01/07 03:38:25;;;;;;;23.30;18.57;;;;;;;11.14;38.71;101881.25;5033741;28;20025;-72
2021/01/07 03:40:51;;;;;;;26.03;18.30;;;;;;;11.14;38.65;101875.78;5033619;28;20048;-76
2021/01/07 03:43:16;;;;;;;22.40;17.73;;;;;;;11.03;38.85;101875.03;5032524;28;20037;-73
2021/01/07 03:45:42;;;;;;;22.97;18.03;;;;;;;11.32;38.32;101870.38;5033167;28;20036;-72
2021/01/07 03:48:07;;;;;;;25.67;17.63;;;;;;;11.35;38.35;101878.00;5033553;28;20033;-72
2021/01/07 03:50:33;;;;;;;22.17;16.20;;;;;;;11.11;38.74;101874.44;5033578;28;20029;-72
2021/01/07 03:52:59;;;;;;;22.27;17.63;;;;;;;11.02;38.93;101867.94;5033414;28;20455;-73
2021/01/07 03:55:24;;;;;;;26.23;18.30;;;;;;;11.19;38.68;101868.34;5033372;28;20025;-72
2021/01/07 03:57:50;;;;;;;20.77;16.37;;;;;;;11.33;38.21;101862.97;5033405;28;20029;-72
2021/01/07 04:00:16;;;;;;;24.10;17.97;;;;;;;11.31;38.37;101859.72;5033288;28;20017;-72
2021/01/07 04:02:42;;;;;;;23.97;17.17;;;;;;;11.48;38.08;101865.53;5033268;28;20056;-72
2021/01/07 04:05:07;;;;;;;21.17;17.63;;;;;;;11.43;38.16;101865.59;5033272;28;20057;-72
2021/01/07 04:07:33;;;;;;;20.33;16.53;;;;;;;11.46;38.06;101864.19;5033143;28;20040;-72
2021/01/07 04:09:59;;;;;;;21.00;16.40;;;;;;;11.35;38.34;101861.59;5033173;28;20028;-72
2021/01/07 04:12:24;;;;;;;21.07;16.13;;;;;;;11.31;38.53;101859.72;5033134;28;20387;-72
2021/01/07 04:14:50;;;;;;;21.87;16.73;;;;;;;11.18;38.83;101860.41;5033011;28;20044;-72
2021/01/07 04:17:15;;;;;;;20.30;16.10;;;;;;;11.11;38.89;101856.09;5033055;28;20518;-72
2021/01/07 04:19:42;;;;;;;21.77;15.87;;;;;;;11.39;38.34;101861.81;5032908;28;20101;-72
2021/01/07 04:22:07;;;;;;;22.07;15.10;;;;;;;11.26;38.56;101870.69;5032941;28;20029;-72
2021/01/07 04:24:33;;;;;;;22.63;17.60;;;;;;;11.35;38.50;101860.78;5032915;28;20028;-71
2021/01/07 04:27:04;;;;;;;27.13;17.07;;;;;;;11.26;38.66;101863.34;5032866;28;20030;-72
2021/01/07 04:29:30;;;;;;;21.10;17.33;;;;;;;11.33;38.77;101862.97;5032703;28;20120;-71
2021/01/07 04:31:56;;;;;;;23.80;16.53;;;;;;;11.14;38.95;101865.66;5032613;28;20033;-74
2021/01/07 04:34:21;;;;;;;25.10;16.40;;;;;;;11.34;38.48;101868.19;5032689;28;20025;-79
2021/01/07 04:36:48;;;;;;;19.47;16.43;;;;;;;11.52;38.42;101871.25;5032510;28;20415;-73
2021/01/07 04:39:14;;;;;;;26.33;17.40;;;;;;;11.49;38.47;101866.38;5033419;28;20108;-74
2021/01/07 04:41:40;;;;;;;22.60;16.87;;;;;;;11.50;38.17;101866.06;5042575;28;20025;-73
2021/01/07 04:44:06;;;;;;;22.47;17.37;;;;;;;11.59;38.33;101861.56;5022131;28;20031;-77
2021/01/07 04:46:32;;;;;;;19.47;15.97;;;;;;;11.50;38.37;101859.78;5041359;28;20103;-80
2021/01/07 04:48:58;;;;;;;80.57;64.57;;;;;;;11.49;38.31;101860.91;5040995;28;20064;-73
2021/01/07 04:51:24;;;;;;;25.87;16.97;;;;;;;11.19;38.94;101853.84;5040211;28;20017;-73
2021/01/07 04:53:50;;;;;;;24.17;19.40;;;;;;;11.57;38.33;101852.84;5024100;28;20468;-74
2021/01/07 04:56:16;;;;;;;23.53;16.87;;;;;;;11.34;38.55;101851.75;5041767;28;20484;-74
2021/01/07 04:58:41;;;;;;;30.57;27.43;;;;;;;11.54;38.20;101842.47;5040320;28;20021;-74
2021/01/07 05:01:07;;;;;;;25.23;19.53;;;;;;;11.41;38.54;101843.19;5024454;28;20032;-76
2021/01/07 05:03:34;;;;;;;30.70;25.07;;;;;;;11.48;38.53;101838.16;5041190;28;20119;-73
2021/01/07 05:06:00;;;;;;;28.10;21.70;;;;;;;11.68;37.94;101840.66;5040559;28;20021;-74
2021/01/07 05:08:27;;;;;;;23.57;18.07;;;;;;;11.47;38.42;101841.19;5040193;28;20365;-74
2021/01/07 05:10:54;;;;;;;34.70;27.33;;;;;;;11.20;38.74;101842.59;5041470;28;20053;-74
2021/01/07 05:13:21;;;;;;;29.87;23.50;;;;;;;11.45;38.30;101843.41;5042274;28;20017;-74
2021/01/07 05:15:47;;;;;;;24.97;20.50;;;;;;;11.42;38.35;101850.31;5037760;28;20017;-76
2021/01/07 05:18:13;;;;;;;25.03;19.67;;;;;;;11.58;38.22;101849.00;5041330;28;20025;-74
2021/01/07 05:20:39;;;;;;;25.50;22.50;;;;;;;11.17;39.08;101848.63;5039580;28;20021;-74
2021/01/07 05:23:06;;;;;;;27.47;19.40;;;;;;;11.47;38.71;101844.75;5042283;28;20375;-75
2021/01/07 05:25:32;;;;;;;22.93;19.10;;;;;;;11.56;38.42;101844.91;5023272;28;20022;-74
2021/01/07 05:28:00;;;;;;;27.03;20.93;;;;;;;11.48;38.49;101820.94;5043738;28;20060;-75
2021/01/07 05:30:28;;;;;;;22.73;18.20;;;;;;;11.55;38.34;101833.16;5044290;28;20479;-76
2021/01/07 05:33:05;;;;;;;23.57;18.67;;;;;;;11.03;39.47;101840.31;5044998;28;20374;-74
2021/01/07 05:35:31;;;;;;;27.77;20.83;;;;;;;11.49;38.73;101830.78;5042623;28;20025;-82
2021/01/07 05:37:58;;;;;;;32.17;19.87;;;;;;;11.27;39.06;101832.13;5044490;28;20386;-79
2021/01/07 05:40:24;;;;;;;23.80;18.77;;;;;;;11.49;38.82;101834.34;5045915;28;20564;-74
2021/01/07 05:42:50;;;;;;;25.67;18.73;;;;;;;11.44;38.94;101825.38;5044532;28;20040;-74
2021/01/07 05:45:18;;;;;;;23.13;19.93;;;;;;;11.39;38.92;101827.06;5026693;28;20059;-75
2021/01/07 05:47:52;;;;;;;22.50;18.37;;;;;;;11.29;39.57;101824.44;5045771;28;20033;-75
2021/01/07 05:50:20;;;;;;;26.97;17.73;;;;;;;11.39;39.36;101829.78;5045228;28;20419;-74
2021/01/07 05:52:47;;;;;;;24.17;18.67;;;;;;;11.54;39.00;101826.06;5043651;28;20021;-75
2021/01/07 05:55:14;;;;;;;25.17;18.40;;;;;;;11.52;38.96;101814.59;5026863;28;20368;-76
2021/01/07 05:57:41;;;;;;;27.37;21.80;;;;;;;11.43;39.31;101818.28;5045463;28;20025;-74
2021/01/07 06:00:12;;;;;;;24.33;19.63;;;;;;;11.38;39.43;101816.41;5043402;28;20033;-74
2021/01/07 06:02:42;;;;;;;27.20;19.53;;;;;;;11.57;39.07;101820.00;5043948;28;20057;-74
2021/01/07 06:05:10;;;;;;;22.40;18.58;;;;;;;11.60;38.84;101815.84;5041103;28;20030;-74
2021/01/07 06:07:37;;;;;;;26.63;19.90;;;;;;;11.46;39.13;101823.97;5044181;28;20434;-75
2021/01/07 06:10:05;;;;;;;24.87;19.93;;;;;;;11.63;38.97;101820.72;5045432;28;20390;-74
2021/01/07 06:12:31;;;;;;;29.40;20.00;;;;;;;11.67;38.84;101825.34;5043870;28;20052;-75
2021/01/07 06:15:00;;;;;;;22.10;18.60;;;;;;;11.80;38.58;101825.72;5046017;28;20079;-74
2021/01/07 06:17:29;;;;;;;24.35;18.90;;;;;;;11.81;38.71;101830.13;5043141;28;20025;-74
2021/01/07 06:19:54;;;;;;;28.03;20.20;;;;;;;11.82;38.68;101824.34;5044044;28;20051;-75
2021/01/07 06:22:22;;;;;;;24.93;19.03;;;;;;;11.82;39.06;101829.00;5045029;28;20025;-78
2021/01/07 06:24:54;;;;;;;25.40;19.23;;;;;;;11.74;38.68;101824.16;5040662;28;20044;-75
2021/01/07 06:27:27;;;;;;;25.93;18.80;;;;;;;11.66;39.09;101822.91;5043065;28;20022;-74
2021/01/07 06:30:14;;;;;;;23.67;19.13;;;;;;;11.61;39.06;101820.22;5041810;28;20530;-74
2021/01/07 06:32:41;;;;;;;22.47;18.47;;;;;;;11.80;38.94;101818.38;5030716;28;20029;-75
2021/01/07 06:35:09;;;;;;;27.30;19.00;;;;;;;11.89;38.66;101819.31;5022171;28;20029;-76
2021/01/07 06:37:37;;;;;;;29.03;20.77;;;;;;;11.75;38.96;101823.06;5031132;28;20025;-74
2021/01/07 06:40:11;;;;;;;24.57;19.07;;;;;;;11.68;39.24;101818.75;5045150;28;20029;-76
2021/01/07 06:42:39;;;;;;;30.03;19.00;;;;;;;11.72;39.06;101815.44;5046260;28;20792;-78
2021/01/07 06:45:06;;;;;;;34.10;20.90;;;;;;;11.46;39.86;101812.19;5046409;28;20029;-83
2021/01/07 06:47:32;;;;;;;25.73;18.97;;;;;;;11.66;39.37;101817.44;5047617;28;20029;-83
2021/01/07 06:50:00;;;;;;;25.63;19.57;;;;;;;11.67;39.37;101817.13;5039731;28;20361;-75
2021/01/07 06:52:26;;;;;;;26.33;19.33;;;;;;;11.75;39.08;101821.13;5044576;28;20479;-75
2021/01/07 06:54:55;;;;;;;24.07;18.90;;;;;;;11.44;40.01;101820.72;5043196;28;20126;-74
2021/01/07 06:57:22;;;;;;;24.52;18.50;;;;;;;11.53;39.70;101818.94;5042718;28;20029;-74
2021/01/07 06:59:59;;;;;;;25.97;19.03;;;;;;;11.62;39.45;101828.13;5040011;28;20032;-74
2021/01/07 07:02:26;;;;;;;27.77;19.30;;;;;;;11.63;39.54;101818.00;5042454;28;20175;-75
2021/01/07 07:05:09;;;;;;;23.57;18.43;;;;;;;11.69;39.59;101822.31;5045217;28;20017;-74
2021/01/07 07:07:37;;;;;;;29.43;18.80;;;;;;;11.63;39.61;101829.75;5023986;28;20060;-83
2021/01/07 07:10:18;;;;;;;22.20;18.37;;;;;;;11.62;39.68;101824.59;5024506;28;20421;-73
2021/01/07 07:12:52;;;;;;;25.17;19.30;;;;;;;11.71;39.83;101825.56;5024698;28;20045;-73
2021/01/07 07:15:22;;;;;;;26.33;18.92;;;;;;;11.62;40.02;101821.84;5042617;28;20032;-74
2021/01/07 07:17:51;;;;;;;20.97;17.70;;;;;;;11.78;39.71;101815.06;5039794;28;20022;-73
2021/01/07 07:20:21;;;;;;;30.10;18.13;;;;;;;11.78;39.84;101825.19;5042844;28;20078;-74
2021/01/07 07:22:47;;;;;;;;;;;;;;;11.50;40.43;101816.81;5039877;28;20492;-74
2021/01/07 07:25:21;;;;;;;23.60;17.37;;;;;;;11.77;39.82;101823.56;5025579;28;19917;-73
2021/01/07 07:27:51;;;;;;;23.73;16.73;;;;;;;11.76;39.87;101821.94;5043743;28;20025;-74
2021/01/07 07:30:28;;;;;;;28.70;17.83;;;;;;;11.54;41.21;101817.03;5043276;28;20112;-73
2021/01/07 07:32:55;;;;;;;22.60;16.97;;;;;;;11.72;40.29;101815.44;5024366;28;20060;-74
2021/01/07 07:35:34;;;;;;;21.70;17.67;;;;;;;11.85;40.14;101822.94;5043728;28;20031;-74
2021/01/07 07:38:00;;;;;;;28.23;18.40;;;;;;;11.86;40.20;101819.94;5042406;28;20538;-75
2021/01/07 07:40:26;;;;;;;21.75;17.55;;;;;;;11.80;40.36;101815.63;5041578;28;20029;-75
2021/01/07 07:42:54;;;;;;;24.50;17.50;;;;;;;11.73;40.56;101811.59;5035995;28;20021;-74
2021/01/07 07:45:23;;;;;;;25.10;16.13;;;;;;;11.64;40.91;101816.91;5033709;28;20472;-74
2021/01/07 07:47:49;;;;;;;21.85;16.83;;;;;;;11.64;40.95;101819.66;5033697;28;20059;-74
2021/01/07 07:50:20;;;;;;;22.90;17.73;;;;;;;11.75;40.96;101823.88;5033269;28;20428;-73
2021/01/07 07:52:46;;;;;;;26.03;19.20;;;;;;;11.86;40.58;101822.66;5039306;28;20476;-74
2021/01/07 07:55:12;;;;;;;23.70;17.73;;;;;;;11.71;40.84;101825.56;5044661;28;20032;-78
2021/01/07 07:57:48;;;;;;;28.87;20.87;;;;;;;11.80;40.84;101823.00;5025096;28;20092;-77
2021/01/07 08:00:15;;;;;;;28.77;21.20;;;;;;;11.71;41.13;101813.78;5046213;28;20383;-73
2021/01/07 08:02:50;;;;;;;21.80;18.00;;;;;;;11.67;41.00;101819.06;5053248;28;20025;-72
2021/01/07 08:05:26;;;;;;;23.97;17.03;;;;;;;11.59;41.18;101822.44;5053161;28;20056;-73
2021/01/07 08:07:53;;;;;;;56.60;32.57;;;;;;;11.51;41.31;101821.16;5046635;28;20411;-74
2021/01/07 08:10:19;;;;;;;27.98;21.90;;;;;;;11.64;41.03;101825.94;5041902;28;20479;-73
2021/01/07 08:12:44;;;;;;;37.80;24.67;;;;;;;11.85;40.43;101826.50;5052937;28;20021;-72
2021/01/07 08:15:10;;;;;;;26.37;21.73;;;;;;;11.65;40.77;101824.81;5039646;28;20068;-76
2021/01/07 08:17:36;;;;;;;20.37;15.37;;;;;;;11.15;42.04;101825.44;5031249;28;20076;-73
2021/01/07 08:20:02;;;;;;;20.73;16.47;;;;;;;11.11;42.06;101828.75;5033083;28;20041;-74
2021/01/07 08:22:28;;;;;;;23.83;17.07;;;;;;;11.73;40.81;101828.03;5038445;28;20021;-77
2021/01/07 08:24:59;;;;;;;20.73;16.23;;;;;;;11.52;41.24;101838.41;5048852;28;20467;-73
2021/01/07 08:27:28;;;;;;;34.10;30.60;;;;;;;11.76;40.68;101838.38;5015882;28;20060;-78
2021/01/07 08:29:57;;;;;;;27.57;24.60;;;;;;;11.43;41.22;101840.97;5019421;28;20535;-73
2021/01/07 08:32:35;;;;;;;20.20;16.00;;;;;;;11.31;41.56;101838.63;5016976;28;20025;-73
2021/01/07 08:35:07;;;;;;;21.00;16.43;;;;;;;11.43;41.51;101840.16;5037055;28;20037;-72
2021/01/07 08:37:35;;;;;;;22.10;17.33;;;;;;;11.68;40.53;101843.38;5035363;28;20540;-73
2021/01/07 08:40:07;;;;;;;19.33;16.30;;;;;;;11.52;40.96;101817.31;5022757;28;20061;-77
2021/01/07 08:42:36;;;;;;;23.63;16.25;;;;;;;11.53;41.18;101845.50;4999124;28;20457;-77
2021/01/07 08:45:04;;;;;;;18.52;15.27;;;;;;;11.33;41.62;101849.28;5016920;28;20037;-73
2021/01/07 08:47:30;;;;;;;26.27;17.67;;;;;;;11.34;41.72;101851.75;5016121;28;20021;-73
2021/01/07 08:50:10;;;;;;;17.73;13.80;;;;;;;11.14;42.30;101857.44;5015896;28;20127;-73
2021/01/07 08:52:53;;;;;;;19.45;15.35;;;;;;;11.22;42.19;101848.59;5018075;28;20434;-74
2021/01/07 08:55:41;;;;;;;22.43;15.57;;;;;;;11.28;42.15;101850.19;5015537;28;20036;-73
2021/01/07 08:58:07;;;;;;;19.27;14.67;;;;;;;11.35;41.75;101852.56;5031164;28;20508;-78
2021/01/07 09:00:32;;;;;;;16.17;13.53;;;;;;;10.91;42.83;101861.78;5019113;28;20036;-76
2021/01/07 09:03:02;;;;;;;21.37;15.27;;;;;;;11.11;42.39;101856.09;5032299;28;20036;-72
2021/01/07 09:05:29;;;;;;;25.30;16.73;;;;;;;10.64;43.54;101862.25;5031766;28;20023;-72
2021/01/07 09:08:24;;;;;;;26.67;22.07;;;;;;;11.11;42.24;101866.22;5025430;28;20119;-76
2021/01/07 09:10:49;;;;;;;19.30;15.03;;;;;;;10.94;42.67;101863.09;5006794;28;20030;-77
2021/01/07 09:13:22;;;;;;;21.27;16.33;;;;;;;11.08;42.19;101872.25;5016245;28;20142;-72
2021/01/07 09:15:48;;;;;;;34.80;29.50;;;;;;;11.03;42.23;101864.09;5015734;28;20495;-72
2021/01/07 09:18:18;;;;;;;30.13;23.63;;;;;;;11.05;42.28;101865.47;5016285;28;20025;-73
2021/01/07 09:20:44;;;;;;;35.28;23.17;;;;;;;11.20;42.14;101867.22;5015205;28;20550;-73
2021/01/07 09:23:13;;;;;;;21.93;16.77;;;;;;;10.96;42.45;101869.94;5017119;28;20163;-78
2021/01/07 09:25:39;;;;;;;342.83;175.30;;;;;;;11.06;42.56;101875.28;4998986;28;20033;-72
2021/01/07 09:28:05;;;;;;;125.90;70.50;;;;;;;10.95;42.59;101870.19;5017337;28;20045;-74
2021/01/07 09:30:32;;;;;;;24.47;18.80;;;;;;;10.79;42.90;101872.25;5015582;28;20871;-75
2021/01/07 09:32:58;;;;;;;43.67;31.07;;;;;;;11.08;42.19;101864.88;5017045;28;20473;-81
2021/01/07 09:35:24;;;;;;;31.70;22.40;;;;;;;11.07;42.34;101868.72;5033476;28;20037;-78
2021/01/07 09:37:50;;;;;;;33.83;20.03;;;;;;;11.15;42.13;101863.72;5037910;28;20029;-73
2021/01/07 09:40:16;;;;;;;27.70;20.00;;;;;;;11.23;41.75;101854.88;5032029;28;20026;-72
2021/01/07 09:42:42;;;;;;;29.80;18.80;;;;;;;11.11;42.09;101864.31;5031165;28;20029;-72
2021/01/07 09:45:09;;;;;;;29.90;19.90;;;;;;;11.17;42.35;101873.25;5032129;28;20033;-73
2021/01/07 09:47:36;;;;;;;26.77;17.50;;;;;;;11.05;42.42;101870.94;5032016;28;20346;-72
2021/01/07 09:50:12;;;;;;;28.13;18.73;;;;;;;11.05;42.63;101868.19;5031510;28;20495;-80
2021/01/07 09:52:38;;;;;;;36.70;19.60;;;;;;;10.85;43.08;101868.38;5031988;28;20030;-72
2021/01/07 09:55:06;;;;;;;36.07;21.33;;;;;;;11.00;42.56;101865.50;5031828;28;20511;-72
2021/01/07 09:57:32;;;;;;;30.83;20.80;;;;;;;11.06;42.57;101875.28;5031246;28;20033;-72
2021/01/07 09:59:57;;;;;;;29.47;20.37;;;;;;;10.98;42.75;101873.19;5014102;28;20036;-72
2021/01/07 10:02:23;;;;;;;33.17;19.50;;;;;;;10.65;43.70;101868.53;5033485;28;20140;-72
2021/01/07 10:04:48;;;;;;;26.80;18.90;;;;;;;10.58;43.90;101868.91;5042483;28;20029;-80
2021/01/07 10:07:14;;;;;;;35.03;21.80;;;;;;;11.24;42.12;101875.66;5023995;28;20033;-75
2021/01/07 10:09:41;;;;;;;34.07;21.63;;;;;;;11.03;42.68;101873.16;5031935;28;20542;-72
2021/01/07 10:12:07;;;;;;;31.07;20.73;;;;;;;11.17;42.74;101869.72;5032347;28;20053;-72
2021/01/07 10:14:33;;;;;;;38.83;21.70;;;;;;;11.53;41.65;101878.34;5034427;28;20048;-77
2021/01/07 10:17:02;;;;;;;30.63;20.47;;;;;;;11.42;41.90;101888.63;5034500;28;20033;-79
2021/01/07 10:19:33;;;;;;;32.47;19.13;;;;;;;11.15;42.88;101875.47;5035184;28;20021;-72
2021/01/07 10:22:05;;;;;;;25.43;17.73;;;;;;;11.35;42.37;101872.53;5034974;28;20033;-80
2021/01/07 10:24:32;;;;;;;29.57;19.00;;;;;;;10.94;43.40;101866.66;5033190;28;20036;-79
2021/01/07 10:27:04;;;;;;;34.60;20.73;;;;;;;11.07;43.08;101865.97;5033245;28;20548;-72
2021/01/07 10:29:37;;;;;;;30.07;18.10;;;;;;;11.04;43.19;101868.50;5032053;28;20096;-73
2021/01/07 10:32:14;;;;;;;26.57;17.73;;;;;;;11.04;42.89;101868.50;5031661;28;20061;-72
2021/01/07 10:34:44;;;;;;;25.50;16.23;;;;;;;10.88;43.93;101856.84;5033163;28;20095;-73
2021/01/07 10:37:12;;;;;;;29.10;19.50;;;;;;;11.22;42.59;101862.28;5032346;28;20075;-72
2021/01/07 10:39:40;;;;;;;25.23;18.33;;;;;;;11.09;43.27;101866.50;5034817;28;20023;-79
2021/01/07 10:42:09;;;;;;;26.47;16.40;;;;;;;11.07;43.28;101860.50;5034415;28;20034;-72
2021/01/07 10:44:37;;;;;;;28.37;17.73;;;;;;;11.03;43.20;101864.94;5016087;28;20022;-73
2021/01/07 10:47:05;;;;;;;29.33;18.30;;;;;;;11.50;42.51;101863.34;5016840;28;20406;-72
2021/01/07 10:49:32;;;;;;;31.70;18.37;;;;;;;11.08;42.97;101862.13;5034663;28;20104;-72
2021/01/07 10:52:07;;;;;;;28.43;17.60;;;;;;;10.86;43.35;101856.34;5034611;28;20013;-72
2021/01/07 10:55:03;;;;;;;31.67;18.07;;;;;;;11.28;42.69;101858.38;5033748;28;20112;-76
2021/01/07 10:58:26;;;;;;;31.37;16.87;;;;;;;11.27;42.93;101856.75;5016774;28;20053;-72
2021/01/07 11:01:01;;;;;;;26.87;15.90;;;;;;;11.29;42.96;101854.53;4932703;29;20048;-76
2021/01/07 11:03:53;;;;;;;35.90;21.03;;;;;;;11.66;42.03;101851.09;4922032;29;20403;-78
2021/01/07 11:06:29;;;;;;;28.90;17.90;;;;;;;11.30;42.80;101858.09;5004088;28;20510;-72
2021/01/07 11:09:09;;;;;;;30.37;17.20;;;;;;;11.44;42.56;101848.06;5043444;28;20074;-73
2021/01/07 11:11:49;;;;;;;31.48;18.42;;;;;;;11.18;43.34;101855.75;5040806;28;20030;-72
2021/01/07 11:14:21;;;;;;;30.17;17.33;;;;;;;11.46;42.66;101850.50;5043699;28;20040;-73